sensor_id;sensor_type;location;lat;lon;timestamp;pressure;altitude;pressure_sealevel;temperature;humidity
41690;BME280;27372;42.658;23.256;2024-02-26T07:52:42;93346.97;;;10.57;94.75
41690;BME280;27372;42.658;23.256;2024-02-26T07:55:07;93343.72;;;10.28;94.88
41690;BME280;27372;42.658;23.256;2024-02-26T07:57:33;93337.47;;;10.51;93.72
41690;BME280;27372;42.658;23.256;2024-02-26T07:59:59;93346.78;;;10.64;93.30
41690;BME280;27372;42.658;23.256;2024-02-26T08:02:25;93345.63;;;10.55;94.16
41690;BME280;27372;42.658;23.256;2024-02-26T08:04:50;93338.09;;;10.64;94.66
41690;BME280;27372;42.658;23.256;2024-02-26T08:07:16;93343.88;;;10.61;93.60
41690;BME280;27372;42.658;23.256;2024-02-26T08:09:43;93330.53;;;10.67;93.14
41690;BME280;27372;42.658;23.256;2024-02-26T08:12:12;93341.09;;;10.72;91.87
41690;BME280;27372;42.658;23.256;2024-02-26T08:14:37;93341.94;;;11.06;90.96
41690;BME280;27372;42.658;23.256;2024-02-26T08:17:03;93337.75;;;11.10;90.85
41690;BME280;27372;42.658;23.256;2024-02-26T08:19:28;93332.91;;;11.29;89.63
41690;BME280;27372;42.658;23.256;2024-02-26T08:21:54;93330.94;;;11.46;88.47
41690;BME280;27372;42.658;23.256;2024-02-26T08:24:19;93338.88;;;11.52;88.14
41690;BME280;27372;42.658;23.256;2024-02-26T08:26:45;93335.41;;;11.84;85.56
41690;BME280;27372;42.658;23.256;2024-02-26T08:29:11;93342.50;;;11.83;85.49
41690;BME280;27372;42.658;23.256;2024-02-26T08:31:36;93339.72;;;11.57;86.26
41690;BME280;27372;42.658;23.256;2024-02-26T08:34:03;93335.22;;;11.58;86.48
41690;BME280;27372;42.658;23.256;2024-02-26T08:36:31;93341.44;;;11.79;85.79
41690;BME280;27372;42.658;23.256;2024-02-26T08:38:56;93337.38;;;11.66;85.40
41690;BME280;27372;42.658;23.256;2024-02-26T08:41:22;93343.03;;;11.80;85.78
41690;BME280;27372;42.658;23.256;2024-02-26T08:43:47;93345.16;;;11.88;85.64
41690;BME280;27372;42.658;23.256;2024-02-26T08:46:13;93348.44;;;12.06;84.73
41690;BME280;27372;42.658;23.256;2024-02-26T08:48:39;93339.16;;;11.93;85.40
41690;BME280;27372;42.658;23.256;2024-02-26T08:51:08;93338.53;;;12.23;84.53
41690;BME280;27372;42.658;23.256;2024-02-26T08:53:35;93343.31;;;12.42;81.79
41690;BME280;27372;42.658;23.256;2024-02-26T08:56:01;93334.44;;;12.64;81.95
41690;BME280;27372;42.658;23.256;2024-02-26T08:58:28;93350.78;;;12.61;80.92
41690;BME280;27372;42.658;23.256;2024-02-26T09:00:54;93342.34;;;12.58;81.31
41690;BME280;27372;42.658;23.256;2024-02-26T09:03:20;93336.34;;;12.73;81.40
41690;BME280;27372;42.658;23.256;2024-02-26T09:05:46;93328.09;;;12.49;80.77
41690;BME280;27372;42.658;23.256;2024-02-26T09:08:11;93327.84;;;12.51;82.34
41690;BME280;27372;42.658;23.256;2024-02-26T09:10:38;93324.75;;;12.80;81.04
41690;BME280;27372;42.658;23.256;2024-02-26T09:13:04;93330.06;;;13.05;79.45
41690;BME280;27372;42.658;23.256;2024-02-26T09:15:29;93332.41;;;12.97;79.93
41690;BME280;27372;42.658;23.256;2024-02-26T09:17:55;93324.00;;;13.00;79.51
41690;BME280;27372;42.658;23.256;2024-02-26T09:20:21;93339.19;;;12.56;81.99
41690;BME280;27372;42.658;23.256;2024-02-26T09:22:47;93327.91;;;12.77;80.89
41690;BME280;27372;42.658;23.256;2024-02-26T09:25:13;93329.72;;;12.66;80.47
41690;BME280;27372;42.658;23.256;2024-02-26T09:27:39;93327.66;;;12.78;80.69
41690;BME280;27372;42.658;23.256;2024-02-26T09:30:05;93331.38;;;13.13;78.23
41690;BME280;27372;42.658;23.256;2024-02-26T09:32:31;93321.88;;;13.33;76.83
41690;BME280;27372;42.658;23.256;2024-02-26T09:34:56;93329.81;;;13.23;78.27
41690;BME280;27372;42.658;23.256;2024-02-26T09:37:22;93323.47;;;13.18;77.42
41690;BME280;27372;42.658;23.256;2024-02-26T09:39:47;93315.34;;;13.41;77.27
41690;BME280;27372;42.658;23.256;2024-02-26T09:42:13;93318.22;;;13.70;76.69
41690;BME280;27372;42.658;23.256;2024-02-26T09:44:40;93314.22;;;13.93;74.73
41690;BME280;27372;42.658;23.256;2024-02-26T09:47:09;93320.25;;;13.94;73.24
41690;BME280;27372;42.658;23.256;2024-02-26T09:49:36;93309.66;;;14.09;73.78
41690;BME280;27372;42.658;23.256;2024-02-26T09:52:04;93319.78;;;13.81;72.82
41690;BME280;27372;42.658;23.256;2024-02-26T09:54:31;93312.56;;;14.18;71.76
41690;BME280;27372;42.658;23.256;2024-02-26T09:56:59;93304.28;;;14.40;71.65
41690;BME280;27372;42.658;23.256;2024-02-26T09:59:27;93310.09;;;14.42;70.59
41690;BME280;27372;42.658;23.256;2024-02-26T10:01:53;93299.88;;;14.10;69.54
41690;BME280;27372;42.658;23.256;2024-02-26T10:04:20;93304.72;;;13.87;67.78
41690;BME280;27372;42.658;23.256;2024-02-26T10:06:47;93306.34;;;13.78;67.79
41690;BME280;27372;42.658;23.256;2024-02-26T10:09:12;93297.13;;;13.60;68.10
41690;BME280;27372;42.658;23.256;2024-02-26T10:11:41;93294.78;;;13.48;68.78
41690;BME280;27372;42.658;23.256;2024-02-26T10:14:08;93290.78;;;13.61;68.80
41690;BME280;27372;42.658;23.256;2024-02-26T10:16:46;93288.06;;;14.02;68.00
41690;BME280;27372;42.658;23.256;2024-02-26T10:19:25;93279.34;;;14.02;66.75
41690;BME280;27372;42.658;23.256;2024-02-26T10:21:56;93279.53;;;14.21;66.12
41690;BME280;27372;42.658;23.256;2024-02-26T10:24:22;93288.47;;;14.25;65.36
41690;BME280;27372;42.658;23.256;2024-02-26T10:26:48;93281.13;;;14.17;65.99
41690;BME280;27372;42.658;23.256;2024-02-26T10:29:14;93270.81;;;14.25;65.41
41690;BME280;27372;42.658;23.256;2024-02-26T10:31:42;93268.94;;;14.26;65.98
41690;BME280;27372;42.658;23.256;2024-02-26T10:34:08;93271.66;;;14.60;64.74
41690;BME280;27372;42.658;23.256;2024-02-26T10:36:34;93278.03;;;14.59;63.47
41690;BME280;27372;42.658;23.256;2024-02-26T10:39:04;93257.59;;;14.75;64.43
41690;BME280;27372;42.658;23.256;2024-02-26T10:41:30;93255.69;;;14.36;65.04
41690;BME280;27372;42.658;23.256;2024-02-26T10:43:55;93261.16;;;14.50;64.01
41690;BME280;27372;42.658;23.256;2024-02-26T10:46:21;93260.84;;;14.62;63.45
41690;BME280;27372;42.658;23.256;2024-02-26T10:48:50;93266.75;;;14.43;63.92
41690;BME280;27372;42.658;23.256;2024-02-26T10:51:19;93255.63;;;14.47;63.90
41690;BME280;27372;42.658;23.256;2024-02-26T10:53:47;93252.03;;;14.32;64.02
41690;BME280;27372;42.658;23.256;2024-02-26T10:56:15;93259.78;;;14.58;62.74
41690;BME280;27372;42.658;23.256;2024-02-26T10:58:46;93251.56;;;14.65;61.61
41690;BME280;27372;42.658;23.256;2024-02-26T11:01:27;93253.69;;;14.68;62.27
41690;BME280;27372;42.658;23.256;2024-02-26T11:04:17;93242.47;;;14.36;62.81
41690;BME280;27372;42.658;23.256;2024-02-26T11:06:54;93239.22;;;14.55;62.62
41690;BME280;27372;42.658;23.256;2024-02-26T11:09:22;93233.50;;;14.37;62.48
41690;BME280;27372;42.658;23.256;2024-02-26T11:12:18;93242.25;;;14.78;62.34
41690;BME280;27372;42.658;23.256;2024-02-26T11:14:57;93242.66;;;14.50;62.15
41690;BME280;27372;42.658;23.256;2024-02-26T11:17:35;93241.38;;;14.48;61.56
41690;BME280;27372;42.658;23.256;2024-02-26T11:20:29;93245.06;;;14.47;62.16
41690;BME280;27372;42.658;23.256;2024-02-26T11:23:03;93243.09;;;14.23;62.51
41690;BME280;27372;42.658;23.256;2024-02-26T11:25:32;93243.88;;;14.23;62.51
41690;BME280;27372;42.658;23.256;2024-02-26T11:28:00;93239.53;;;14.43;62.01
41690;BME280;27372;42.658;23.256;2024-02-26T11:30:30;93246.03;;;14.61;60.94
41690;BME280;27372;42.658;23.256;2024-02-26T11:32:57;93231.91;;;14.36;61.78
41690;BME280;27372;42.658;23.256;2024-02-26T11:35:23;93228.56;;;14.65;61.07
41690;BME280;27372;42.658;23.256;2024-02-26T11:37:56;93226.06;;;14.44;61.52
41690;BME280;27372;42.658;23.256;2024-02-26T11:40:26;93214.81;;;14.28;61.57
41690;BME280;27372;42.658;23.256;2024-02-26T11:42:51;93232.50;;;14.73;61.03
41690;BME280;27372;42.658;23.256;2024-02-26T11:50:42;93222.28;;;14.61;61.64
41690;BME280;27372;42.658;23.256;2024-02-26T11:58:40;93209.94;;;14.86;60.93
41690;BME280;27372;42.658;23.256;2024-02-26T12:01:35;93208.34;;;14.90;60.79
41690;BME280;27372;42.658;23.256;2024-02-26T12:03:54;93227.63;;;15.25;58.01
41690;BME280;27372;42.658;23.256;2024-02-26T12:06:20;93231.81;;;15.61;57.19
41690;BME280;27372;42.658;23.256;2024-02-26T12:08:46;93235.38;;;16.43;54.53
41690;BME280;27372;42.658;23.256;2024-02-26T12:11:15;93226.94;;;16.60;53.02
41690;BME280;27372;42.658;23.256;2024-02-26T12:13:41;93238.59;;;16.78;52.20
41690;BME280;27372;42.658;23.256;2024-02-26T12:16:07;93232.50;;;16.39;53.15
41690;BME280;27372;42.658;23.256;2024-02-26T12:18:34;93222.50;;;16.12;53.21
41690;BME280;27372;42.658;23.256;2024-02-26T12:21:00;93240.56;;;15.86;53.37
41690;BME280;27372;42.658;23.256;2024-02-26T12:23:26;93221.13;;;15.95;52.59
41690;BME280;27372;42.658;23.256;2024-02-26T12:25:52;93223.53;;;16.16;52.89
41690;BME280;27372;42.658;23.256;2024-02-26T12:28:18;93234.91;;;16.17;52.65
41690;BME280;27372;42.658;23.256;2024-02-26T12:30:43;93236.34;;;16.28;53.20
41690;BME280;27372;42.658;23.256;2024-02-26T12:33:09;93245.06;;;16.53;52.72
41690;BME280;27372;42.658;23.256;2024-02-26T12:35:35;93240.22;;;16.55;51.86
41690;BME280;27372;42.658;23.256;2024-02-26T12:38:01;93237.41;;;16.27;52.14
41690;BME280;27372;42.658;23.256;2024-02-26T12:40:29;93230.88;;;16.19;51.85
41690;BME280;27372;42.658;23.256;2024-02-26T12:42:55;93241.22;;;16.21;52.16
41690;BME280;27372;42.658;23.256;2024-02-26T12:45:21;93239.16;;;15.93;52.63
41690;BME280;27372;42.658;23.256;2024-02-26T12:47:46;93242.00;;;16.21;52.47
41690;BME280;27372;42.658;23.256;2024-02-26T12:50:13;93232.50;;;16.39;52.05
41690;BME280;27372;42.658;23.256;2024-02-26T12:52:42;93238.00;;;16.43;51.39
41690;BME280;27372;42.658;23.256;2024-02-26T12:55:08;93225.28;;;16.45;51.08
41690;BME280;27372;42.658;23.256;2024-02-26T12:57:39;93225.56;;;16.63;50.04
41690;BME280;27372;42.658;23.256;2024-02-26T13:00:07;93229.91;;;16.34;50.12
41690;BME280;27372;42.658;23.256;2024-02-26T13:02:37;93230.72;;;16.35;51.17
41690;BME280;27372;42.658;23.256;2024-02-26T13:05:06;93236.47;;;16.18;51.14
41690;BME280;27372;42.658;23.256;2024-02-26T13:07:33;93235.63;;;16.22;51.19
41690;BME280;27372;42.658;23.256;2024-02-26T13:10:00;93227.69;;;16.22;50.96
41690;BME280;27372;42.658;23.256;2024-02-26T13:12:25;93218.41;;;16.01;50.79
41690;BME280;27372;42.658;23.256;2024-02-26T13:15:01;93232.81;;;16.13;50.18
41690;BME280;27372;42.658;23.256;2024-02-26T13:17:27;93232.59;;;16.10;51.04
41690;BME280;27372;42.658;23.256;2024-02-26T13:19:54;93240.28;;;15.87;50.22
41690;BME280;27372;42.658;23.256;2024-02-26T13:22:22;93232.09;;;16.08;50.90
41690;BME280;27372;42.658;23.256;2024-02-26T13:24:56;93234.47;;;16.09;50.41
41690;BME280;27372;42.658;23.256;2024-02-26T13:27:25;93230.91;;;15.95;49.37
41690;BME280;27372;42.658;23.256;2024-02-26T13:30:11;93246.66;;;15.86;49.21
41690;BME280;27372;42.658;23.256;2024-02-26T13:32:38;93241.19;;;15.72;49.43
41690;BME280;27372;42.658;23.256;2024-02-26T13:35:09;93240.97;;;15.68;49.45
41690;BME280;27372;42.658;23.256;2024-02-26T13:37:36;93242.81;;;15.44;50.67
41690;BME280;27372;42.658;23.256;2024-02-26T13:40:06;93243.16;;;15.32;50.78
41690;BME280;27372;42.658;23.256;2024-02-26T13:42:34;93247.97;;;15.30;50.77
41690;BME280;27372;42.658;23.256;2024-02-26T13:45:00;93241.78;;;15.40;50.29
41690;BME280;27372;42.658;23.256;2024-02-26T13:47:26;93248.00;;;15.54;50.75
41690;BME280;27372;42.658;23.256;2024-02-26T13:49:51;93242.97;;;15.52;50.25
41690;BME280;27372;42.658;23.256;2024-02-26T13:52:17;93239.94;;;15.40;50.30
41690;BME280;27372;42.658;23.256;2024-02-26T13:54:45;93246.63;;;15.27;51.10
41690;BME280;27372;42.658;23.256;2024-02-26T13:57:11;93235.16;;;15.07;51.56
41690;BME280;27372;42.658;23.256;2024-02-26T13:59:37;93246.09;;;14.96;51.85
41690;BME280;27372;42.658;23.256;2024-02-26T14:02:03;93249.88;;;15.19;51.09
41690;BME280;27372;42.658;23.256;2024-02-26T14:04:29;93242.69;;;15.25;50.77
41690;BME280;27372;42.658;23.256;2024-02-26T14:06:54;93253.91;;;15.46;51.27
41690;BME280;27372;42.658;23.256;2024-02-26T14:09:20;93244.50;;;15.29;50.19
41690;BME280;27372;42.658;23.256;2024-02-26T14:11:45;93241.72;;;15.15;51.13
41690;BME280;27372;42.658;23.256;2024-02-26T14:14:11;93254.56;;;15.27;51.19
41690;BME280;27372;42.658;23.256;2024-02-26T14:16:36;93249.81;;;15.29;50.55
41690;BME280;27372;42.658;23.256;2024-02-26T14:19:02;93251.38;;;15.30;50.69
41690;BME280;27372;42.658;23.256;2024-02-26T14:21:28;93260.25;;;15.45;50.42
41690;BME280;27372;42.658;23.256;2024-02-26T14:23:55;93260.06;;;15.36;50.32
41690;BME280;27372;42.658;23.256;2024-02-26T14:26:22;93255.75;;;15.45;50.47
41690;BME280;27372;42.658;23.256;2024-02-26T14:28:47;93248.31;;;15.18;50.63
41690;BME280;27372;42.658;23.256;2024-02-26T14:31:13;93249.38;;;15.17;49.95
41690;BME280;27372;42.658;23.256;2024-02-26T14:33:38;93256.91;;;15.34;49.72
41690;BME280;27372;42.658;23.256;2024-02-26T14:36:07;93274.97;;;15.21;49.77
41690;BME280;27372;42.658;23.256;2024-02-26T14:38:33;93271.94;;;15.04;50.80
41690;BME280;27372;42.658;23.256;2024-02-26T14:40:58;93264.38;;;14.92;50.73
41690;BME280;27372;42.658;23.256;2024-02-26T14:43:24;93274.28;;;15.11;50.56
41690;BME280;27372;42.658;23.256;2024-02-26T14:45:50;93268.59;;;14.93;50.53
41690;BME280;27372;42.658;23.256;2024-02-26T14:48:15;93272.91;;;14.84;50.24
41690;BME280;27372;42.658;23.256;2024-02-26T14:50:41;93261.97;;;14.96;50.59
41690;BME280;27372;42.658;23.256;2024-02-26T14:53:06;93259.78;;;14.68;50.82
41690;BME280;27372;42.658;23.256;2024-02-26T14:55:32;93263.78;;;14.55;50.70
41690;BME280;27372;42.658;23.256;2024-02-26T14:57:58;93271.78;;;14.40;50.92
41690;BME280;27372;42.658;23.256;2024-02-26T15:00:23;93282.09;;;14.36;51.14
41690;BME280;27372;42.658;23.256;2024-02-26T15:02:49;93275.81;;;14.27;51.25
41690;BME280;27372;42.658;23.256;2024-02-26T15:05:14;93284.94;;;14.50;50.83
41690;BME280;27372;42.658;23.256;2024-02-26T15:07:41;93283.88;;;14.56;50.43
41690;BME280;27372;42.658;23.256;2024-02-26T15:10:07;93287.84;;;14.49;51.09
41690;BME280;27372;42.658;23.256;2024-02-26T15:12:33;93283.16;;;14.35;51.17
41690;BME280;27372;42.658;23.256;2024-02-26T15:14:59;93285.25;;;14.38;51.37
41690;BME280;27372;42.658;23.256;2024-02-26T15:17:26;93291.78;;;14.51;51.50
41690;BME280;27372;42.658;23.256;2024-02-26T15:19:53;93289.81;;;14.27;51.04
41690;BME280;27372;42.658;23.256;2024-02-26T15:22:19;93281.13;;;14.22;51.31
41690;BME280;27372;42.658;23.256;2024-02-26T15:24:44;93292.16;;;14.29;51.43
41690;BME280;27372;42.658;23.256;2024-02-26T15:27:12;93292.41;;;14.33;52.24
41690;BME280;27372;42.658;23.256;2024-02-26T15:29:37;93302.75;;;14.29;51.37
41690;BME280;27372;42.658;23.256;2024-02-26T15:32:05;93300.63;;;14.26;51.24
41690;BME280;27372;42.658;23.256;2024-02-26T15:34:30;93297.78;;;14.17;51.61
41690;BME280;27372;42.658;23.256;2024-02-26T15:36:56;93306.19;;;14.24;51.76
41690;BME280;27372;42.658;23.256;2024-02-26T15:39:21;93312.56;;;14.18;51.83
41690;BME280;27372;42.658;23.256;2024-02-26T15:41:47;93303.59;;;14.19;52.17
41690;BME280;27372;42.658;23.256;2024-02-26T15:44:13;93303.59;;;14.19;52.15
41690;BME280;27372;42.658;23.256;2024-02-26T15:46:41;93306.50;;;14.07;52.74
41690;BME280;27372;42.658;23.256;2024-02-26T15:49:07;93310.72;;;14.08;52.42
41690;BME280;27372;42.658;23.256;2024-02-26T15:51:33;93312.31;;;14.09;52.63
41690;BME280;27372;42.658;23.256;2024-02-26T15:53:59;93304.44;;;13.99;52.94
41690;BME280;27372;42.658;23.256;2024-02-26T15:56:24;93323.44;;;13.96;52.83
41690;BME280;27372;42.658;23.256;2024-02-26T15:58:52;93324.53;;;13.74;53.73
41690;BME280;27372;42.658;23.256;2024-02-26T16:01:18;93318.19;;;13.75;53.74
41690;BME280;27372;42.658;23.256;2024-02-26T16:03:44;93319.00;;;13.60;54.73
41690;BME280;27372;42.658;23.256;2024-02-26T16:06:24;93322.97;;;13.47;55.80
41690;BME280;27372;42.658;23.256;2024-02-26T16:08:51;93329.28;;;13.15;56.67
41690;BME280;27372;42.658;23.256;2024-02-26T16:11:17;93328.75;;;13.08;57.99
41690;BME280;27372;42.658;23.256;2024-02-26T16:13:43;93325.03;;;12.94;59.79
41690;BME280;27372;42.658;23.256;2024-02-26T16:16:14;93332.94;;;12.88;60.24
41690;BME280;27372;42.658;23.256;2024-02-26T16:18:42;93334.78;;;12.93;61.42
41690;BME280;27372;42.658;23.256;2024-02-26T16:21:08;93332.41;;;12.97;60.08
41690;BME280;27372;42.658;23.256;2024-02-26T16:23:34;93337.19;;;13.15;60.27
41690;BME280;27372;42.658;23.256;2024-02-26T16:26:00;93336.94;;;13.17;60.22
41690;BME280;27372;42.658;23.256;2024-02-26T16:28:26;93345.09;;;13.15;60.66
41690;BME280;27372;42.658;23.256;2024-02-26T16:30:58;93356.69;;;12.99;61.93
41690;BME280;27372;42.658;23.256;2024-02-26T16:33:35;93349.53;;;12.84;62.98
41690;BME280;27372;42.658;23.256;2024-02-26T16:36:01;93358.19;;;12.69;61.01
41690;BME280;27372;42.658;23.256;2024-02-26T16:38:27;93361.34;;;12.71;61.84
41690;BME280;27372;42.658;23.256;2024-02-26T16:40:52;93360.31;;;12.77;61.81
41690;BME280;27372;42.658;23.256;2024-02-26T16:43:18;93375.59;;;12.75;61.94
41690;BME280;27372;42.658;23.256;2024-02-26T16:45:43;93371.00;;;12.50;62.47
41690;BME280;27372;42.658;23.256;2024-02-26T16:48:08;93375.50;;;12.54;63.05
41690;BME280;27372;42.658;23.256;2024-02-26T16:50:34;93375.13;;;12.25;65.81
41690;BME280;27372;42.658;23.256;2024-02-26T16:52:59;93375.63;;;12.22;66.63
41690;BME280;27372;42.658;23.256;2024-02-26T16:55:24;93375.25;;;11.98;68.44
41690;BME280;27372;42.658;23.256;2024-02-26T16:57:52;93376.41;;;11.79;66.90
41690;BME280;27372;42.658;23.256;2024-02-26T17:00:17;93374.97;;;11.61;65.25
41690;BME280;27372;42.658;23.256;2024-02-26T17:02:43;93386.22;;;11.52;63.59
41690;BME280;27372;42.658;23.256;2024-02-26T17:05:10;93384.88;;;11.49;63.24
41690;BME280;27372;42.658;23.256;2024-02-26T17:07:35;93377.69;;;11.39;62.29
41690;BME280;27372;42.658;23.256;2024-02-26T17:10:01;93381.09;;;11.40;61.42
41690;BME280;27372;42.658;23.256;2024-02-26T17:12:26;93385.59;;;11.39;61.84
41690;BME280;27372;42.658;23.256;2024-02-26T17:14:51;93385.28;;;11.36;62.01
41690;BME280;27372;42.658;23.256;2024-02-26T17:17:17;93384.47;;;11.30;62.72
41690;BME280;27372;42.658;23.256;2024-02-26T17:19:42;93380.41;;;11.17;63.11
41690;BME280;27372;42.658;23.256;2024-02-26T17:22:08;93388.59;;;11.21;63.33
41690;BME280;27372;42.658;23.256;2024-02-26T17:24:35;93396.72;;;11.19;63.58
41690;BME280;27372;42.658;23.256;2024-02-26T17:27:01;93386.44;;;11.17;63.27
41690;BME280;27372;42.658;23.256;2024-02-26T17:29:26;93388.59;;;11.21;63.55
41690;BME280;27372;42.658;23.256;2024-02-26T17:31:52;93394.22;;;11.07;63.92
41690;BME280;27372;42.658;23.256;2024-02-26T17:34:17;93391.13;;;11.10;63.82
41690;BME280;27372;42.658;23.256;2024-02-26T17:36:43;93398.09;;;10.99;63.54
41690;BME280;27372;42.658;23.256;2024-02-26T17:39:08;93408.84;;;10.98;63.52
41690;BME280;27372;42.658;23.256;2024-02-26T17:41:34;93407.81;;;10.99;64.02
41690;BME280;27372;42.658;23.256;2024-02-26T17:43:59;93402.38;;;11.06;63.43
41690;BME280;27372;42.658;23.256;2024-02-26T17:46:25;93396.94;;;10.90;63.81
41690;BME280;27372;42.658;23.256;2024-02-26T17:48:50;93396.53;;;10.98;63.76
41690;BME280;27372;42.658;23.256;2024-02-26T17:51:15;93404.91;;;10.95;64.27
41690;BME280;27372;42.658;23.256;2024-02-26T17:53:41;93406.66;;;10.90;64.38
41690;BME280;27372;42.658;23.256;2024-02-26T17:56:07;93411.84;;;10.84;64.67
41690;BME280;27372;42.658;23.256;2024-02-26T17:58:33;93410.91;;;10.46;66.77
41690;BME280;27372;42.658;23.256;2024-02-26T18:00:59;93422.47;;;10.67;66.36
41690;BME280;27372;42.658;23.256;2024-02-26T18:03:25;93400.22;;;10.53;66.45
41690;BME280;27372;42.658;23.256;2024-02-26T18:05:50;93418.31;;;10.49;66.61
41690;BME280;27372;42.658;23.256;2024-02-26T18:08:16;93405.72;;;10.51;66.41
41690;BME280;27372;42.658;23.256;2024-02-26T18:10:47;93406.75;;;10.50;66.94
41690;BME280;27372;42.658;23.256;2024-02-26T18:13:12;93409.94;;;10.52;66.44
41690;BME280;27372;42.658;23.256;2024-02-26T18:15:38;93415.59;;;10.44;67.02
41690;BME280;27372;42.658;23.256;2024-02-26T18:18:03;93414.78;;;10.21;69.38
41690;BME280;27372;42.658;23.256;2024-02-26T18:20:29;93426.56;;;10.58;68.12
41690;BME280;27372;42.658;23.256;2024-02-26T18:22:54;93425.31;;;10.66;67.78
41690;BME280;27372;42.658;23.256;2024-02-26T18:25:20;93412.13;;;10.83;66.38
41690;BME280;27372;42.658;23.256;2024-02-26T18:27:45;93415.84;;;10.87;66.75
41690;BME280;27372;42.658;23.256;2024-02-26T18:30:11;93424.75;;;10.86;67.28
41690;BME280;27372;42.658;23.256;2024-02-26T18:32:39;93415.22;;;10.80;67.54
41690;BME280;27372;42.658;23.256;2024-02-26T18:35:04;93424.84;;;10.69;67.99
41690;BME280;27372;42.658;23.256;2024-02-26T18:37:30;93415.38;;;10.46;68.26
41690;BME280;27372;42.658;23.256;2024-02-26T18:39:55;93413.28;;;10.08;70.37
41690;BME280;27372;42.658;23.256;2024-02-26T18:42:21;93418.28;;;10.10;69.67
41690;BME280;27372;42.658;23.256;2024-02-26T18:44:49;93421.34;;;10.02;70.28
41690;BME280;27372;42.658;23.256;2024-02-26T18:47:15;93436.50;;;10.17;69.84
41690;BME280;27372;42.658;23.256;2024-02-26T18:49:42;93425.31;;;10.04;69.54
41690;BME280;27372;42.658;23.256;2024-02-26T18:52:08;93423.72;;;10.03;69.62
41690;BME280;27372;42.658;23.256;2024-02-26T18:54:33;93427.78;;;9.77;70.99
41690;BME280;27372;42.658;23.256;2024-02-26T18:56:59;93432.31;;;9.82;70.80
41690;BME280;27372;42.658;23.256;2024-02-26T18:59:24;93432.25;;;9.76;70.66
41690;BME280;27372;42.658;23.256;2024-02-26T19:01:50;93441.91;;;9.42;73.49
41690;BME280;27372;42.658;23.256;2024-02-26T19:04:21;93426.59;;;9.51;74.44
41690;BME280;27372;42.658;23.256;2024-02-26T19:06:47;93447.38;;;9.40;74.49
41690;BME280;27372;42.658;23.256;2024-02-26T19:09:13;93440.13;;;9.13;76.17
41690;BME280;27372;42.658;23.256;2024-02-26T19:11:53;93451.50;;;9.36;75.20
41690;BME280;27372;42.658;23.256;2024-02-26T19:14:20;93457.56;;;9.37;75.44
41690;BME280;27372;42.658;23.256;2024-02-26T19:16:45;93449.75;;;9.42;74.24
41690;BME280;27372;42.658;23.256;2024-02-26T19:19:11;93458.03;;;9.51;73.44
41690;BME280;27372;42.658;23.256;2024-02-26T19:21:36;93464.56;;;9.48;73.78
41690;BME280;27372;42.658;23.256;2024-02-26T19:24:02;93469.66;;;9.72;73.17
41690;BME280;27372;42.658;23.256;2024-02-26T19:26:32;93462.75;;;9.66;73.24
41690;BME280;27372;42.658;23.256;2024-02-26T19:28:58;93465.38;;;9.66;73.57
41690;BME280;27372;42.658;23.256;2024-02-26T19:31:24;93470.44;;;9.55;74.30
41690;BME280;27372;42.658;23.256;2024-02-26T19:33:53;93476.00;;;9.59;74.50
41690;BME280;27372;42.658;23.256;2024-02-26T19:36:18;93478.38;;;9.77;74.39
41690;BME280;27372;42.658;23.256;2024-02-26T19:38:44;93478.91;;;9.91;73.14
41690;BME280;27372;42.658;23.256;2024-02-26T19:41:10;93495.97;;;10.11;72.62
41690;BME280;27372;42.658;23.256;2024-02-26T19:43:35;93490.00;;;10.16;71.67
41690;BME280;27372;42.658;23.256;2024-02-26T19:46:00;93495.00;;;10.00;72.30
41690;BME280;27372;42.658;23.256;2024-02-26T19:48:28;93498.09;;;10.14;72.66
41690;BME280;27372;42.658;23.256;2024-02-26T19:50:55;93503.03;;;9.93;73.87
41690;BME280;27372;42.658;23.256;2024-02-26T19:53:20;93508.06;;;9.78;74.78
41690;BME280;27372;42.658;23.256;2024-02-26T19:55:46;93505.13;;;9.74;75.54
41690;BME280;27372;42.658;23.256;2024-02-26T19:58:13;93507.72;;;9.74;75.05
41690;BME280;27372;42.658;23.256;2024-02-26T20:00:39;93505.13;;;9.74;74.47
41690;BME280;27372;42.658;23.256;2024-02-26T20:03:08;93509.16;;;9.99;73.97
41690;BME280;27372;42.658;23.256;2024-02-26T20:05:33;93505.50;;;10.00;73.91
41690;BME280;27372;42.658;23.256;2024-02-26T20:07:58;93507.09;;;10.18;73.71
41690;BME280;27372;42.658;23.256;2024-02-26T20:10:24;93504.22;;;10.20;73.83
41690;BME280;27372;42.658;23.256;2024-02-26T20:13:08;93509.72;;;10.01;74.55
41690;BME280;27372;42.658;23.256;2024-02-26T20:15:34;93498.41;;;10.18;73.95
41690;BME280;27372;42.658;23.256;2024-02-26T20:17:59;93510.69;;;10.12;74.71
41690;BME280;27372;42.658;23.256;2024-02-26T20:20:25;93499.84;;;10.25;73.49
41690;BME280;27372;42.658;23.256;2024-02-26T20:22:54;93515.69;;;10.48;73.16
41690;BME280;27372;42.658;23.256;2024-02-26T20:25:20;93516.53;;;10.53;73.27
41690;BME280;27372;42.658;23.256;2024-02-26T20:27:45;93516.06;;;10.56;72.23
41690;BME280;27372;42.658;23.256;2024-02-26T20:30:11;93518.25;;;10.65;72.02
41690;BME280;27372;42.658;23.256;2024-02-26T20:32:37;93509.84;;;10.63;72.43
41690;BME280;27372;42.658;23.256;2024-02-26T20:35:02;93515.28;;;10.56;71.92
41690;BME280;27372;42.658;23.256;2024-02-26T20:37:28;93528.41;;;10.56;71.42
41690;BME280;27372;42.658;23.256;2024-02-26T20:39:54;93533.50;;;10.46;70.51
41690;BME280;27372;42.658;23.256;2024-02-26T20:42:19;93527.69;;;10.26;70.90
41690;BME280;27372;42.658;23.256;2024-02-26T20:44:44;93527.53;;;10.33;70.95
41690;BME280;27372;42.658;23.256;2024-02-26T20:47:37;93535.84;;;10.42;70.37
41690;BME280;27372;42.658;23.256;2024-02-26T20:50:29;93534.84;;;10.31;70.75
41690;BME280;27372;42.658;23.256;2024-02-26T20:52:55;93544.72;;;10.07;71.84